sensor_id;sensor_type;location;lat;lon;timestamp;temperature;humidity
43143;DHT22;28750;59.842;17.584;2023-09-30T00:00:07;15.70;99.90
43143;DHT22;28750;59.842;17.584;2023-09-30T00:02:35;15.80;99.90
43143;DHT22;28750;59.842;17.584;2023-09-30T00:05:02;15.70;99.90
43143;DHT22;28750;59.842;17.584;2023-09-30T00:07:29;15.70;99.90
43143;DHT22;28750;59.842;17.584;2023-09-30T00:09:56;15.70;99.90
43143;DHT22;28750;59.842;17.584;2023-09-30T00:12:24;15.70;99.90
43143;DHT22;28750;59.842;17.584;2023-09-30T00:14:51;15.70;99.90
43143;DHT22;28750;59.842;17.584;2023-09-30T00:17:19;15.70;99.90
43143;DHT22;28750;59.842;17.584;2023-09-30T00:19:46;15.70;99.90
43143;DHT22;28750;59.842;17.584;2023-09-30T00:22:13;15.70;99.90
43143;DHT22;28750;59.842;17.584;2023-09-30T00:24:40;15.70;99.90
43143;DHT22;28750;59.842;17.584;2023-09-30T00:27:07;15.70;99.90
43143;DHT22;28750;59.842;17.584;2023-09-30T00:29:34;15.70;99.90
43143;DHT22;28750;59.842;17.584;2023-09-30T00:32:02;15.80;99.90
43143;DHT22;28750;59.842;17.584;2023-09-30T00:34:35;15.70;99.90
43143;DHT22;28750;59.842;17.584;2023-09-30T00:37:02;15.80;99.90
43143;DHT22;28750;59.842;17.584;2023-09-30T00:39:30;15.70;99.90
43143;DHT22;28750;59.842;17.584;2023-09-30T00:41:59;15.70;99.90
43143;DHT22;28750;59.842;17.584;2023-09-30T00:44:26;15.70;99.90
43143;DHT22;28750;59.842;17.584;2023-09-30T00:46:54;15.70;99.90
43143;DHT22;28750;59.842;17.584;2023-09-30T00:49:23;15.70;99.90
43143;DHT22;28750;59.842;17.584;2023-09-30T00:51:51;15.70;99.90
43143;DHT22;28750;59.842;17.584;2023-09-30T00:54:19;15.70;99.90
43143;DHT22;28750;59.842;17.584;2023-09-30T00:56:49;15.70;99.90
43143;DHT22;28750;59.842;17.584;2023-09-30T00:59:17;15.70;99.90
43143;DHT22;28750;59.842;17.584;2023-09-30T01:01:45;15.70;99.90
43143;DHT22;28750;59.842;17.584;2023-09-30T01:04:13;15.60;99.90
43143;DHT22;28750;59.842;17.584;2023-09-30T01:06:41;15.60;99.90
43143;DHT22;28750;59.842;17.584;2023-09-30T01:09:08;15.50;99.90
43143;DHT22;28750;59.842;17.584;2023-09-30T01:11:35;15.50;99.90
43143;DHT22;28750;59.842;17.584;2023-09-30T01:14:02;15.50;99.90
43143;DHT22;28750;59.842;17.584;2023-09-30T01:16:30;15.50;99.90
43143;DHT22;28750;59.842;17.584;2023-09-30T01:18:57;15.40;99.90
43143;DHT22;28750;59.842;17.584;2023-09-30T01:21:24;15.40;99.90
43143;DHT22;28750;59.842;17.584;2023-09-30T01:23:53;15.40;99.90
43143;DHT22;28750;59.842;17.584;2023-09-30T01:26:20;15.40;99.90
43143;DHT22;28750;59.842;17.584;2023-09-30T01:28:48;15.40;99.90
43143;DHT22;28750;59.842;17.584;2023-09-30T01:31:15;15.40;99.90
43143;DHT22;28750;59.842;17.584;2023-09-30T01:33:42;15.40;99.90
43143;DHT22;28750;59.842;17.584;2023-09-30T01:36:10;15.30;99.90
43143;DHT22;28750;59.842;17.584;2023-09-30T01:38:37;15.30;99.90
43143;DHT22;28750;59.842;17.584;2023-09-30T01:41:04;15.30;99.90
43143;DHT22;28750;59.842;17.584;2023-09-30T01:43:31;15.30;99.90
43143;DHT22;28750;59.842;17.584;2023-09-30T01:46:00;15.20;99.90
43143;DHT22;28750;59.842;17.584;2023-09-30T01:48:27;15.30;99.90
43143;DHT22;28750;59.842;17.584;2023-09-30T01:50:54;15.30;99.90
43143;DHT22;28750;59.842;17.584;2023-09-30T01:53:21;15.20;99.90
43143;DHT22;28750;59.842;17.584;2023-09-30T01:55:48;15.30;99.90
43143;DHT22;28750;59.842;17.584;2023-09-30T01:58:15;15.20;99.90
43143;DHT22;28750;59.842;17.584;2023-09-30T02:00:43;15.20;99.90
43143;DHT22;28750;59.842;17.584;2023-09-30T02:03:11;15.20;99.90
43143;DHT22;28750;59.842;17.584;2023-09-30T02:05:40;15.20;99.90
43143;DHT22;28750;59.842;17.584;2023-09-30T02:08:08;15.20;99.90
43143;DHT22;28750;59.842;17.584;2023-09-30T02:10:35;15.20;99.90
43143;DHT22;28750;59.842;17.584;2023-09-30T02:13:03;15.20;99.90
43143;DHT22;28750;59.842;17.584;2023-09-30T02:15:32;15.10;99.90
43143;DHT22;28750;59.842;17.584;2023-09-30T02:17:59;15.10;99.90
43143;DHT22;28750;59.842;17.584;2023-09-30T02:20:26;15.10;99.90
43143;DHT22;28750;59.842;17.584;2023-09-30T02:22:56;15.00;99.90
43143;DHT22;28750;59.842;17.584;2023-09-30T02:25:24;15.10;99.90
43143;DHT22;28750;59.842;17.584;2023-09-30T02:27:52;15.10;99.90
43143;DHT22;28750;59.842;17.584;2023-09-30T02:30:19;15.00;99.90
43143;DHT22;28750;59.842;17.584;2023-09-30T02:32:46;15.00;99.90
43143;DHT22;28750;59.842;17.584;2023-09-30T02:35:14;15.00;99.90
43143;DHT22;28750;59.842;17.584;2023-09-30T02:37:41;15.00;99.90
43143;DHT22;28750;59.842;17.584;2023-09-30T02:40:08;14.90;99.90
43143;DHT22;28750;59.842;17.584;2023-09-30T02:42:40;14.80;99.90
43143;DHT22;28750;59.842;17.584;2023-09-30T02:45:08;14.70;99.90
43143;DHT22;28750;59.842;17.584;2023-09-30T02:47:36;14.70;99.90
43143;DHT22;28750;59.842;17.584;2023-09-30T02:50:08;14.50;99.90
43143;DHT22;28750;59.842;17.584;2023-09-30T02:52:37;14.50;99.90
43143;DHT22;28750;59.842;17.584;2023-09-30T02:55:05;14.50;99.90
43143;DHT22;28750;59.842;17.584;2023-09-30T02:57:33;14.40;99.90
43143;DHT22;28750;59.842;17.584;2023-09-30T03:00:03;14.40;99.90
43143;DHT22;28750;59.842;17.584;2023-09-30T03:02:39;14.30;99.90
43143;DHT22;28750;59.842;17.584;2023-09-30T03:05:07;14.40;99.90
43143;DHT22;28750;59.842;17.584;2023-09-30T03:07:35;14.30;99.90
43143;DHT22;28750;59.842;17.584;2023-09-30T03:10:04;14.30;99.90
43143;DHT22;28750;59.842;17.584;2023-09-30T03:12:35;14.20;99.90
43143;DHT22;28750;59.842;17.584;2023-09-30T03:15:02;14.20;99.90
43143;DHT22;28750;59.842;17.584;2023-09-30T03:17:30;14.10;99.90
43143;DHT22;28750;59.842;17.584;2023-09-30T03:20:00;14.00;99.90
43143;DHT22;28750;59.842;17.584;2023-09-30T03:22:34;13.90;99.90
43143;DHT22;28750;59.842;17.584;2023-09-30T03:25:02;14.00;99.90
43143;DHT22;28750;59.842;17.584;2023-09-30T03:27:33;14.00;99.90
43143;DHT22;28750;59.842;17.584;2023-09-30T03:30:01;14.00;99.90
43143;DHT22;28750;59.842;17.584;2023-09-30T03:32:29;14.00;99.90
43143;DHT22;28750;59.842;17.584;2023-09-30T03:34:56;14.00;99.90
43143;DHT22;28750;59.842;17.584;2023-09-30T03:37:27;14.00;99.90
43143;DHT22;28750;59.842;17.584;2023-09-30T03:39:55;14.00;99.90
43143;DHT22;28750;59.842;17.584;2023-09-30T03:42:22;14.00;99.90
43143;DHT22;28750;59.842;17.584;2023-09-30T03:44:49;13.90;99.90
43143;DHT22;28750;59.842;17.584;2023-09-30T03:47:18;13.90;99.90
43143;DHT22;28750;59.842;17.584;2023-09-30T03:49:45;13.90;99.90
43143;DHT22;28750;59.842;17.584;2023-09-30T03:52:13;13.90;99.90
43143;DHT22;28750;59.842;17.584;2023-09-30T03:54:40;13.80;99.90
43143;DHT22;28750;59.842;17.584;2023-09-30T03:57:08;13.80;99.90
43143;DHT22;28750;59.842;17.584;2023-09-30T03:59:38;13.80;99.90
43143;DHT22;28750;59.842;17.584;2023-09-30T04:02:05;13.80;99.90
43143;DHT22;28750;59.842;17.584;2023-09-30T04:04:34;13.80;99.90
43143;DHT22;28750;59.842;17.584;2023-09-30T04:07:02;13.80;99.90
43143;DHT22;28750;59.842;17.584;2023-09-30T04:09:32;13.70;99.90
43143;DHT22;28750;59.842;17.584;2023-09-30T04:11:59;13.60;99.90
43143;DHT22;28750;59.842;17.584;2023-09-30T04:14:26;13.60;99.90
43143;DHT22;28750;59.842;17.584;2023-09-30T04:16:54;13.50;99.90
43143;DHT22;28750;59.842;17.584;2023-09-30T04:19:21;13.40;99.90
43143;DHT22;28750;59.842;17.584;2023-09-30T04:21:48;13.30;99.90
43143;DHT22;28750;59.842;17.584;2023-09-30T04:24:16;13.30;99.90
43143;DHT22;28750;59.842;17.584;2023-09-30T04:26:44;13.20;99.90
43143;DHT22;28750;59.842;17.584;2023-09-30T04:29:11;13.30;99.90
43143;DHT22;28750;59.842;17.584;2023-09-30T04:31:39;13.30;99.90
43143;DHT22;28750;59.842;17.584;2023-09-30T04:34:08;13.30;99.90
43143;DHT22;28750;59.842;17.584;2023-09-30T04:36:35;13.20;99.90
43143;DHT22;28750;59.842;17.584;2023-09-30T04:39:02;13.20;99.90
43143;DHT22;28750;59.842;17.584;2023-09-30T04:41:30;13.20;99.90
43143;DHT22;28750;59.842;17.584;2023-09-30T04:43:58;13.10;99.90
43143;DHT22;28750;59.842;17.584;2023-09-30T04:46:25;13.10;99.90
43143;DHT22;28750;59.842;17.584;2023-09-30T04:48:53;13.10;99.90
43143;DHT22;28750;59.842;17.584;2023-09-30T04:51:20;13.10;99.90
43143;DHT22;28750;59.842;17.584;2023-09-30T04:53:47;13.10;99.90
43143;DHT22;28750;59.842;17.584;2023-09-30T04:56:14;13.10;99.90
43143;DHT22;28750;59.842;17.584;2023-09-30T04:58:42;13.10;99.90
43143;DHT22;28750;59.842;17.584;2023-09-30T05:01:10;13.10;99.90
43143;DHT22;28750;59.842;17.584;2023-09-30T05:03:37;13.20;99.90
43143;DHT22;28750;59.842;17.584;2023-09-30T05:06:04;13.20;99.90
43143;DHT22;28750;59.842;17.584;2023-09-30T05:08:33;13.10;99.90
43143;DHT22;28750;59.842;17.584;2023-09-30T05:11:01;13.20;99.90
43143;DHT22;28750;59.842;17.584;2023-09-30T05:13:28;13.20;99.90
43143;DHT22;28750;59.842;17.584;2023-09-30T05:15:55;13.20;99.90
43143;DHT22;28750;59.842;17.584;2023-09-30T05:18:22;13.20;99.90
43143;DHT22;28750;59.842;17.584;2023-09-30T05:20:50;13.20;99.90
43143;DHT22;28750;59.842;17.584;2023-09-30T05:23:17;13.10;99.90
43143;DHT22;28750;59.842;17.584;2023-09-30T05:25:44;13.10;99.90
43143;DHT22;28750;59.842;17.584;2023-09-30T05:28:11;13.20;99.90
43143;DHT22;28750;59.842;17.584;2023-09-30T05:30:39;13.00;99.90
43143;DHT22;28750;59.842;17.584;2023-09-30T05:33:07;13.10;99.90
43143;DHT22;28750;59.842;17.584;2023-09-30T05:35:38;13.10;99.90
43143;DHT22;28750;59.842;17.584;2023-09-30T05:38:07;13.00;99.90
43143;DHT22;28750;59.842;17.584;2023-09-30T05:40:36;13.00;99.90
43143;DHT22;28750;59.842;17.584;2023-09-30T05:43:03;13.00;99.90
43143;DHT22;28750;59.842;17.584;2023-09-30T05:45:32;13.00;99.90
43143;DHT22;28750;59.842;17.584;2023-09-30T05:48:02;12.90;99.90
43143;DHT22;28750;59.842;17.584;2023-09-30T05:50:35;12.90;99.90
43143;DHT22;28750;59.842;17.584;2023-09-30T05:53:02;12.90;99.90
43143;DHT22;28750;59.842;17.584;2023-09-30T05:55:30;12.90;99.90
43143;DHT22;28750;59.842;17.584;2023-09-30T05:57:57;12.90;99.90
43143;DHT22;28750;59.842;17.584;2023-09-30T06:00:26;12.90;99.90
43143;DHT22;28750;59.842;17.584;2023-09-30T06:02:57;12.90;99.90
43143;DHT22;28750;59.842;17.584;2023-09-30T06:05:24;12.70;99.90
43143;DHT22;28750;59.842;17.584;2023-09-30T06:07:55;12.70;99.90
43143;DHT22;28750;59.842;17.584;2023-09-30T06:10:22;12.80;99.90
43143;DHT22;28750;59.842;17.584;2023-09-30T06:12:52;12.80;99.90
43143;DHT22;28750;59.842;17.584;2023-09-30T06:15:21;12.80;99.90
43143;DHT22;28750;59.842;17.584;2023-09-30T06:17:55;12.80;99.90
43143;DHT22;28750;59.842;17.584;2023-09-30T06:20:22;12.80;99.90
43143;DHT22;28750;59.842;17.584;2023-09-30T06:22:52;12.80;99.90
43143;DHT22;28750;59.842;17.584;2023-09-30T06:25:20;12.80;99.90
43143;DHT22;28750;59.842;17.584;2023-09-30T06:27:49;12.90;99.90
43143;DHT22;28750;59.842;17.584;2023-09-30T06:30:17;12.90;99.90
43143;DHT22;28750;59.842;17.584;2023-09-30T06:32:45;12.80;99.90
43143;DHT22;28750;59.842;17.584;2023-09-30T06:35:12;12.90;99.90
43143;DHT22;28750;59.842;17.584;2023-09-30T06:37:40;12.90;99.90
43143;DHT22;28750;59.842;17.584;2023-09-30T06:40:09;12.90;99.90
43143;DHT22;28750;59.842;17.584;2023-09-30T06:42:38;13.00;99.90
43143;DHT22;28750;59.842;17.584;2023-09-30T06:45:07;12.80;99.90
43143;DHT22;28750;59.842;17.584;2023-09-30T06:47:36;12.90;99.90
43143;DHT22;28750;59.842;17.584;2023-09-30T06:50:05;12.90;99.90
43143;DHT22;28750;59.842;17.584;2023-09-30T06:52:36;12.80;99.90
43143;DHT22;28750;59.842;17.584;2023-09-30T06:55:04;12.80;99.90
43143;DHT22;28750;59.842;17.584;2023-09-30T06:57:35;12.90;99.90
43143;DHT22;28750;59.842;17.584;2023-09-30T07:00:07;12.90;99.90
43143;DHT22;28750;59.842;17.584;2023-09-30T07:02:35;12.90;99.90
43143;DHT22;28750;59.842;17.584;2023-09-30T07:05:09;12.90;99.90
43143;DHT22;28750;59.842;17.584;2023-09-30T07:07:37;12.90;99.90
43143;DHT22;28750;59.842;17.584;2023-09-30T07:10:05;13.00;99.90
43143;DHT22;28750;59.842;17.584;2023-09-30T07:12:33;13.00;99.90
43143;DHT22;28750;59.842;17.584;2023-09-30T07:15:04;12.90;99.90
43143;DHT22;28750;59.842;17.584;2023-09-30T07:17:33;12.90;99.90
43143;DHT22;28750;59.842;17.584;2023-09-30T07:20:03;12.90;99.90
43143;DHT22;28750;59.842;17.584;2023-09-30T07:22:31;12.90;99.90
43143;DHT22;28750;59.842;17.584;2023-09-30T07:24:58;13.00;99.90
43143;DHT22;28750;59.842;17.584;2023-09-30T07:27:25;13.00;99.90
43143;DHT22;28750;59.842;17.584;2023-09-30T07:29:52;13.00;99.90
43143;DHT22;28750;59.842;17.584;2023-09-30T07:32:19;13.00;99.90
43143;DHT22;28750;59.842;17.584;2023-09-30T07:34:49;13.00;99.90
43143;DHT22;28750;59.842;17.584;2023-09-30T07:37:16;13.10;99.90
43143;DHT22;28750;59.842;17.584;2023-09-30T07:39:44;13.00;99.90
43143;DHT22;28750;59.842;17.584;2023-09-30T07:42:12;13.20;99.90
43143;DHT22;28750;59.842;17.584;2023-09-30T07:44:39;13.20;99.90
43143;DHT22;28750;59.842;17.584;2023-09-30T07:47:06;13.30;99.90
43143;DHT22;28750;59.842;17.584;2023-09-30T07:49:34;13.40;99.90
43143;DHT22;28750;59.842;17.584;2023-09-30T07:52:01;13.30;99.90
43143;DHT22;28750;59.842;17.584;2023-09-30T07:54:29;13.40;99.90
43143;DHT22;28750;59.842;17.584;2023-09-30T07:56:56;13.50;99.90
43143;DHT22;28750;59.842;17.584;2023-09-30T07:59:24;13.60;99.90
43143;DHT22;28750;59.842;17.584;2023-09-30T08:01:52;13.60;99.90
43143;DHT22;28750;59.842;17.584;2023-09-30T08:04:19;13.60;99.90
43143;DHT22;28750;59.842;17.584;2023-09-30T08:06:46;13.60;99.90
43143;DHT22;28750;59.842;17.584;2023-09-30T08:09:14;13.70;99.90
43143;DHT22;28750;59.842;17.584;2023-09-30T08:11:41;13.70;99.90
43143;DHT22;28750;59.842;17.584;2023-09-30T08:14:09;13.80;99.90
43143;DHT22;28750;59.842;17.584;2023-09-30T08:16:37;13.80;99.90
43143;DHT22;28750;59.842;17.584;2023-09-30T08:19:04;13.80;99.90
43143;DHT22;28750;59.842;17.584;2023-09-30T08:21:34;13.90;99.90
43143;DHT22;28750;59.842;17.584;2023-09-30T08:24:02;13.80;99.90
43143;DHT22;28750;59.842;17.584;2023-09-30T08:26:29;13.80;99.90
43143;DHT22;28750;59.842;17.584;2023-09-30T08:28:56;14.00;99.90
43143;DHT22;28750;59.842;17.584;2023-09-30T08:31:24;14.00;99.90
43143;DHT22;28750;59.842;17.584;2023-09-30T08:33:51;14.10;99.90
43143;DHT22;28750;59.842;17.584;2023-09-30T08:36:18;14.00;99.90
43143;DHT22;28750;59.842;17.584;2023-09-30T08:38:45;14.10;99.90
43143;DHT22;28750;59.842;17.584;2023-09-30T08:41:33;14.10;99.90
43143;DHT22;28750;59.842;17.584;2023-09-30T08:44:01;14.20;99.90
43143;DHT22;28750;59.842;17.584;2023-09-30T08:46:33;14.30;99.90
43143;DHT22;28750;59.842;17.584;2023-09-30T08:49:04;14.10;99.90
43143;DHT22;28750;59.842;17.584;2023-09-30T08:51:32;14.20;99.90
43143;DHT22;28750;59.842;17.584;2023-09-30T08:54:00;14.40;99.90
43143;DHT22;28750;59.842;17.584;2023-09-30T08:56:31;14.40;99.90
43143;DHT22;28750;59.842;17.584;2023-09-30T08:59:00;14.50;99.90
43143;DHT22;28750;59.842;17.584;2023-09-30T09:01:29;14.50;99.90
43143;DHT22;28750;59.842;17.584;2023-09-30T09:03:57;14.70;99.90
43143;DHT22;28750;59.842;17.584;2023-09-30T09:06:25;14.60;99.90
43143;DHT22;28750;59.842;17.584;2023-09-30T09:08:52;14.80;99.90
43143;DHT22;28750;59.842;17.584;2023-09-30T09:11:20;14.70;99.90
43143;DHT22;28750;59.842;17.584;2023-09-30T09:13:52;14.70;99.90
43143;DHT22;28750;59.842;17.584;2023-09-30T09:16:22;14.80;99.90
43143;DHT22;28750;59.842;17.584;2023-09-30T09:18:50;14.90;99.90
43143;DHT22;28750;59.842;17.584;2023-09-30T09:21:19;15.00;99.90
43143;DHT22;28750;59.842;17.584;2023-09-30T09:23:50;14.90;99.90
43143;DHT22;28750;59.842;17.584;2023-09-30T09:26:28;14.80;99.90
43143;DHT22;28750;59.842;17.584;2023-09-30T09:29:02;14.90;99.90
43143;DHT22;28750;59.842;17.584;2023-09-30T09:31:35;14.90;99.90
43143;DHT22;28750;59.842;17.584;2023-09-30T09:34:03;14.90;99.90
43143;DHT22;28750;59.842;17.584;2023-09-30T09:36:50;15.10;99.90
43143;DHT22;28750;59.842;17.584;2023-09-30T09:39:29;15.10;99.90
43143;DHT22;28750;59.842;17.584;2023-09-30T09:41:57;15.00;99.90
43143;DHT22;28750;59.842;17.584;2023-09-30T09:44:27;15.10;99.90
43143;DHT22;28750;59.842;17.584;2023-09-30T09:46:54;15.00;99.90
43143;DHT22;28750;59.842;17.584;2023-09-30T09:49:22;15.10;99.90
43143;DHT22;28750;59.842;17.584;2023-09-30T09:51:52;15.40;99.90
43143;DHT22;28750;59.842;17.584;2023-09-30T09:54:21;15.30;99.90
43143;DHT22;28750;59.842;17.584;2023-09-30T09:56:49;15.30;99.90
43143;DHT22;28750;59.842;17.584;2023-09-30T09:59:22;15.20;99.90
43143;DHT22;28750;59.842;17.584;2023-09-30T10:01:51;15.20;99.90
43143;DHT22;28750;59.842;17.584;2023-09-30T10:04:18;15.20;99.90
43143;DHT22;28750;59.842;17.584;2023-09-30T10:06:46;15.40;99.90
43143;DHT22;28750;59.842;17.584;2023-09-30T10:09:18;15.30;99.90
43143;DHT22;28750;59.842;17.584;2023-09-30T10:11:46;15.50;99.90
43143;DHT22;28750;59.842;17.584;2023-09-30T10:14:33;15.20;99.90
43143;DHT22;28750;59.842;17.584;2023-09-30T10:17:02;15.00;99.90
43143;DHT22;28750;59.842;17.584;2023-09-30T10:19:29;15.70;99.90
43143;DHT22;28750;59.842;17.584;2023-09-30T10:22:21;16.40;99.90
43143;DHT22;28750;59.842;17.584;2023-09-30T10:24:55;16.70;99.90
43143;DHT22;28750;59.842;17.584;2023-09-30T10:29:49;16.00;1.00
43143;DHT22;28750;59.842;17.584;2023-09-30T10:32:21;15.80;14.30
43143;DHT22;28750;59.842;17.584;2023-09-30T10:34:49;15.70;99.90
43143;DHT22;28750;59.842;17.584;2023-09-30T10:37:24;15.30;87.00
43143;DHT22;28750;59.842;17.584;2023-09-30T10:39:58;15.30;99.90
43143;DHT22;28750;59.842;17.584;2023-09-30T10:42:47;15.40;99.90
43143;DHT22;28750;59.842;17.584;2023-09-30T10:48:41;16.90;1.00
43143;DHT22;28750;59.842;17.584;2023-09-30T10:51:17;16.60;99.90
43143;DHT22;28750;59.842;17.584;2023-09-30T10:53:51;17.40;15.60
43143;DHT22;28750;59.842;17.584;2023-09-30T10:56:23;17.60;99.90
43143;DHT22;28750;59.842;17.584;2023-09-30T10:58:51;17.60;99.90
43143;DHT22;28750;59.842;17.584;2023-09-30T11:01:22;17.20;99.90
43143;DHT22;28750;59.842;17.584;2023-09-30T11:03:59;16.60;99.90
43143;DHT22;28750;59.842;17.584;2023-09-30T11:06:29;16.60;99.90
43143;DHT22;28750;59.842;17.584;2023-09-30T11:08:57;16.50;58.90
43143;DHT22;28750;59.842;17.584;2023-09-30T11:11:52;16.60;1.00
43143;DHT22;28750;59.842;17.584;2023-09-30T11:14:27;17.00;99.90
43143;DHT22;28750;59.842;17.584;2023-09-30T11:16:57;16.90;54.50
43143;DHT22;28750;59.842;17.584;2023-09-30T11:19:24;16.80;99.90
43143;DHT22;28750;59.842;17.584;2023-09-30T11:21:54;16.80;1.00
43143;DHT22;28750;59.842;17.584;2023-09-30T11:24:23;17.10;1.00
43143;DHT22;28750;59.842;17.584;2023-09-30T11:26:54;17.40;99.90
43143;DHT22;28750;59.842;17.584;2023-09-30T11:29:21;17.40;99.90
43143;DHT22;28750;59.842;17.584;2023-09-30T11:31:49;17.90;99.90
43143;DHT22;28750;59.842;17.584;2023-09-30T11:34:17;18.00;1.00
43143;DHT22;28750;59.842;17.584;2023-09-30T11:37:03;17.50;92.90
43143;DHT22;28750;59.842;17.584;2023-09-30T11:39:31;17.00;99.90
43143;DHT22;28750;59.842;17.584;2023-09-30T11:41:59;16.80;1.00
43143;DHT22;28750;59.842;17.584;2023-09-30T11:44:26;16.60;99.90
43143;DHT22;28750;59.842;17.584;2023-09-30T11:46:56;16.10;99.90
43143;DHT22;28750;59.842;17.584;2023-09-30T11:49:31;16.00;99.90
43143;DHT22;28750;59.842;17.584;2023-09-30T11:52:04;16.30;35.00
43143;DHT22;28750;59.842;17.584;2023-09-30T11:54:37;16.60;1.00
43143;DHT22;28750;59.842;17.584;2023-09-30T11:57:07;16.50;1.00
43143;DHT22;28750;59.842;17.584;2023-09-30T11:59:37;16.20;1.00
43143;DHT22;28750;59.842;17.584;2023-09-30T12:02:05;16.30;1.00
43143;DHT22;28750;59.842;17.584;2023-09-30T12:04:32;16.50;29.80
43143;DHT22;28750;59.842;17.584;2023-09-30T12:07:00;16.40;1.00
43143;DHT22;28750;59.842;17.584;2023-09-30T12:09:27;16.70;1.00
43143;DHT22;28750;59.842;17.584;2023-09-30T12:11:56;16.50;99.90
43143;DHT22;28750;59.842;17.584;2023-09-30T12:14:24;16.60;99.90
43143;DHT22;28750;59.842;17.584;2023-09-30T12:16:51;17.10;1.00
43143;DHT22;28750;59.842;17.584;2023-09-30T12:19:19;17.40;99.90
43143;DHT22;28750;59.842;17.584;2023-09-30T12:21:47;17.30;99.90
43143;DHT22;28750;59.842;17.584;2023-09-30T12:24:16;17.00;1.00
43143;DHT22;28750;59.842;17.584;2023-09-30T12:26:48;16.90;78.00
43143;DHT22;28750;59.842;17.584;2023-09-30T12:29:16;16.70;99.90
43143;DHT22;28750;59.842;17.584;2023-09-30T12:31:47;16.60;99.90
43143;DHT22;28750;59.842;17.584;2023-09-30T12:34:15;16.20;1.00
43143;DHT22;28750;59.842;17.584;2023-09-30T12:36:43;16.20;1.00
43143;DHT22;28750;59.842;17.584;2023-09-30T12:39:11;16.30;99.90
43143;DHT22;28750;59.842;17.584;2023-09-30T12:41:43;16.40;99.90
43143;DHT22;28750;59.842;17.584;2023-09-30T12:44:11;16.40;13.20
43143;DHT22;28750;59.842;17.584;2023-09-30T12:46:38;16.10;1.00
43143;DHT22;28750;59.842;17.584;2023-09-30T12:49:09;15.90;99.90
43143;DHT22;28750;59.842;17.584;2023-09-30T12:51:36;16.00;99.90
43143;DHT22;28750;59.842;17.584;2023-09-30T12:54:03;16.00;99.90
43143;DHT22;28750;59.842;17.584;2023-09-30T12:56:30;16.00;99.90
43143;DHT22;28750;59.842;17.584;2023-09-30T12:58:59;16.00;99.90
43143;DHT22;28750;59.842;17.584;2023-09-30T13:01:26;16.10;99.90
43143;DHT22;28750;59.842;17.584;2023-09-30T13:03:54;16.30;99.90
43143;DHT22;28750;59.842;17.584;2023-09-30T13:06:21;16.20;99.90
43143;DHT22;28750;59.842;17.584;2023-09-30T13:08:48;16.30;99.90
43143;DHT22;28750;59.842;17.584;2023-09-30T13:11:15;16.20;99.90
43143;DHT22;28750;59.842;17.584;2023-09-30T13:13:43;16.30;99.90
43143;DHT22;28750;59.842;17.584;2023-09-30T13:16:11;16.20;99.90
43143;DHT22;28750;59.842;17.584;2023-09-30T13:18:38;16.30;91.40
43143;DHT22;28750;59.842;17.584;2023-09-30T13:21:06;16.20;99.90
43143;DHT22;28750;59.842;17.584;2023-09-30T13:23:33;16.10;99.90
43143;DHT22;28750;59.842;17.584;2023-09-30T13:26:01;15.90;1.00
43143;DHT22;28750;59.842;17.584;2023-09-30T13:28:29;15.70;1.00
43143;DHT22;28750;59.842;17.584;2023-09-30T13:30:56;15.70;56.30
43143;DHT22;28750;59.842;17.584;2023-09-30T13:33:23;15.70;99.90
43143;DHT22;28750;59.842;17.584;2023-09-30T13:35:50;15.50;99.90
43143;DHT22;28750;59.842;17.584;2023-09-30T13:38:17;15.50;99.90
43143;DHT22;28750;59.842;17.584;2023-09-30T13:40:44;15.60;99.90
43143;DHT22;28750;59.842;17.584;2023-09-30T13:43:12;15.60;99.90
43143;DHT22;28750;59.842;17.584;2023-09-30T13:45:39;15.70;1.00
43143;DHT22;28750;59.842;17.584;2023-09-30T13:48:06;15.80;83.20
43143;DHT22;28750;59.842;17.584;2023-09-30T13:50:34;15.80;1.00
43143;DHT22;28750;59.842;17.584;2023-09-30T13:53:01;15.80;1.00
43143;DHT22;28750;59.842;17.584;2023-09-30T13:55:28;15.70;1.00
43143;DHT22;28750;59.842;17.584;2023-09-30T13:57:55;15.80;99.90
43143;DHT22;28750;59.842;17.584;2023-09-30T14:00:22;15.90;99.90
43143;DHT22;28750;59.842;17.584;2023-09-30T14:02:49;15.90;99.90
43143;DHT22;28750;59.842;17.584;2023-09-30T14:05:17;15.70;99.90
43143;DHT22;28750;59.842;17.584;2023-09-30T14:07:45;15.70;99.90
43143;DHT22;28750;59.842;17.584;2023-09-30T14:10:13;15.50;99.90
43143;DHT22;28750;59.842;17.584;2023-09-30T14:12:40;15.50;99.90
43143;DHT22;28750;59.842;17.584;2023-09-30T14:15:08;15.50;1.00
43143;DHT22;28750;59.842;17.584;2023-09-30T14:17:35;15.50;1.00
43143;DHT22;28750;59.842;17.584;2023-09-30T14:20:03;15.50;99.90
43143;DHT22;28750;59.842;17.584;2023-09-30T14:22:31;15.30;99.90
43143;DHT22;28750;59.842;17.584;2023-09-30T14:24:58;15.30;99.90
43143;DHT22;28750;59.842;17.584;2023-09-30T14:27:25;15.20;99.90
43143;DHT22;28750;59.842;17.584;2023-09-30T14:29:52;15.20;99.90
43143;DHT22;28750;59.842;17.584;2023-09-30T14:32:19;15.10;99.90
43143;DHT22;28750;59.842;17.584;2023-09-30T14:34:47;15.20;99.90
43143;DHT22;28750;59.842;17.584;2023-09-30T14:37:14;15.20;1.00
43143;DHT22;28750;59.842;17.584;2023-09-30T14:39:42;15.20;99.90
43143;DHT22;28750;59.842;17.584;2023-09-30T14:42:11;15.30;1.00
43143;DHT22;28750;59.842;17.584;2023-09-30T14:44:38;15.40;99.90
43143;DHT22;28750;59.842;17.584;2023-09-30T14:47:05;15.40;99.90
43143;DHT22;28750;59.842;17.584;2023-09-30T14:49:32;15.30;99.90
43143;DHT22;28750;59.842;17.584;2023-09-30T14:51:59;15.20;99.90
43143;DHT22;28750;59.842;17.584;2023-09-30T14:54:28;15.30;1.00
43143;DHT22;28750;59.842;17.584;2023-09-30T14:56:55;15.20;1.00
43143;DHT22;28750;59.842;17.584;2023-09-30T14:59:24;15.10;1.00
43143;DHT22;28750;59.842;17.584;2023-09-30T15:01:51;15.20;1.40
43143;DHT22;28750;59.842;17.584;2023-09-30T15:04:19;15.10;99.90
43143;DHT22;28750;59.842;17.584;2023-09-30T15:06:46;15.00;99.90
43143;DHT22;28750;59.842;17.584;2023-09-30T15:09:13;14.90;99.90
43143;DHT22;28750;59.842;17.584;2023-09-30T15:11:41;14.90;99.90
43143;DHT22;28750;59.842;17.584;2023-09-30T15:14:08;14.80;99.90
43143;DHT22;28750;59.842;17.584;2023-09-30T15:16:35;14.70;1.00
43143;DHT22;28750;59.842;17.584;2023-09-30T15:19:02;14.50;99.90
43143;DHT22;28750;59.842;17.584;2023-09-30T15:21:30;14.50;99.90
43143;DHT22;28750;59.842;17.584;2023-09-30T15:23:57;14.40;99.90
43143;DHT22;28750;59.842;17.584;2023-09-30T15:26:26;14.30;20.40
43143;DHT22;28750;59.842;17.584;2023-09-30T15:28:53;14.40;1.00
43143;DHT22;28750;59.842;17.584;2023-09-30T15:31:21;14.40;90.00